createdAt,value
2017-12-02T00:00:17.838Z,1017.85
2017-12-02T00:01:26.495Z,1017.83
2017-12-02T00:02:35.681Z,1017.83
2017-12-02T00:03:44.845Z,1017.78
2017-12-02T00:04:53.531Z,1017.78
2017-12-02T00:06:02.439Z,1017.79
2017-12-02T00:07:11.337Z,1017.8
2017-12-02T00:08:20.816Z,1017.8
2017-12-02T00:09:30.509Z,1017.8
2017-12-02T00:10:39.929Z,1017.81
2017-12-02T00:11:49.105Z,1017.81
2017-12-02T00:12:58.299Z,1017.82
2017-12-02T00:14:06.983Z,1017.83
2017-12-02T00:15:15.646Z,1017.88
2017-12-02T00:16:25.323Z,1017.91
2017-12-02T00:17:34.228Z,1017.94
2017-12-02T00:18:43.148Z,1017.97
2017-12-02T00:19:52.324Z,1017.97
2017-12-02T00:21:01.486Z,1018.03
2017-12-02T00:22:10.982Z,1018.05
2017-12-02T00:23:20.156Z,1018.08
2017-12-02T00:24:28.796Z,1018.1
2017-12-02T00:25:37.441Z,1018.08
2017-12-02T00:26:46.122Z,1018.1
2017-12-02T00:27:55.807Z,1018.07
2017-12-02T00:29:05.254Z,1018.08
2017-12-02T00:30:14.701Z,1018.07
2017-12-02T00:31:23.865Z,1018.08
2017-12-02T00:32:32.536Z,1018.1
2017-12-02T00:33:41.448Z,1018.09
2017-12-02T00:34:50.887Z,1018.12
2017-12-02T00:35:59.788Z,1018.17
2017-12-02T00:37:08.944Z,1018.15
2017-12-02T00:38:18.511Z,1018.18
2017-12-02T00:39:27.661Z,1018.16
2017-12-02T00:40:36.837Z,1018.2
2017-12-02T00:41:46.000Z,1018.21
2017-12-02T00:42:55.163Z,1018.26
2017-12-02T00:44:04.617Z,1018.27
2017-12-02T00:45:13.799Z,1018.23
2017-12-02T00:46:22.972Z,1018.28
2017-12-02T00:47:31.882Z,1018.27
2017-12-02T00:48:40.823Z,1018.26
2017-12-02T00:49:49.724Z,1018.27
2017-12-02T00:50:58.902Z,1018.3
2017-12-02T00:52:08.065Z,1018.29
2017-12-02T00:53:16.980Z,1018.31
2017-12-02T00:54:26.137Z,1018.31
2017-12-02T00:55:35.295Z,1018.3
2017-12-02T00:56:44.474Z,1018.32
2017-12-02T00:57:53.414Z,1018.28
2017-12-02T00:59:02.568Z,1018.26
2017-12-02T01:00:11.463Z,1018.28
2017-12-02T01:01:20.389Z,1018.3
2017-12-02T01:02:29.310Z,1018.27
2017-12-02T01:03:38.797Z,1018.29
2017-12-02T01:04:47.685Z,1018.31
2017-12-02T01:05:57.103Z,1018.32
2017-12-02T01:07:06.042Z,1018.34
2017-12-02T01:08:14.940Z,1018.35
2017-12-02T01:09:23.845Z,1018.41
2017-12-02T01:10:33.015Z,1018.41
2017-12-02T01:11:42.247Z,1018.44
2017-12-02T01:12:51.419Z,1018.43
2017-12-02T01:14:00.324Z,1018.49
2017-12-02T01:15:09.245Z,1018.53
2017-12-02T01:16:18.713Z,1018.48
2017-12-02T01:17:28.155Z,1018.52
2017-12-02T01:18:37.363Z,1018.54
2017-12-02T01:19:46.530Z,1018.57
2017-12-02T01:20:55.734Z,1018.58
2017-12-02T01:22:04.886Z,1018.6
2017-12-02T01:23:14.329Z,1018.64
2017-12-02T01:24:24.007Z,1018.63
2017-12-02T01:25:32.645Z,1018.66
2017-12-02T01:26:41.585Z,1018.66
2017-12-02T01:27:50.512Z,1018.69
2017-12-02T01:28:59.667Z,1018.71
2017-12-02T01:30:08.598Z,1018.73
2017-12-02T01:31:17.250Z,1018.74
2017-12-02T01:32:26.656Z,1018.78
2017-12-02T01:33:35.846Z,1018.79
2017-12-02T01:34:45.508Z,1018.81
2017-12-02T01:35:54.424Z,1018.85
2017-12-02T01:37:03.606Z,1018.85
2017-12-02T01:38:12.523Z,1018.85
2017-12-02T01:39:21.681Z,1018.9
2017-12-02T01:40:31.357Z,1018.91
2017-12-02T01:41:40.762Z,1018.92
2017-12-02T01:42:50.436Z,1018.91
2017-12-02T01:43:59.321Z,1018.93
2017-12-02T01:45:08.490Z,1018.93
2017-12-02T01:46:17.942Z,1018.94
2017-12-02T01:47:26.857Z,1018.94
2017-12-02T01:48:36.075Z,1018.98
2017-12-02T01:49:45.258Z,1018.99
2017-12-02T01:50:54.432Z,1019.01
2017-12-02T01:52:03.333Z,1019.04
2017-12-02T01:53:12.742Z,1019.11
2017-12-02T01:54:21.631Z,1019.11
2017-12-02T01:55:30.579Z,1019.1
2017-12-02T01:56:39.762Z,1019.14
2017-12-02T01:57:48.675Z,1019.16
2017-12-02T01:58:58.089Z,1019.19
2017-12-02T02:00:07.038Z,1019.18
2017-12-02T02:01:15.712Z,1019.2
2017-12-02T02:02:25.401Z,1019.24
2017-12-02T02:03:34.313Z,1019.24
2017-12-02T02:04:42.960Z,1019.29
2017-12-02T02:05:52.111Z,1019.3
2017-12-02T02:07:01.265Z,1019.34
2017-12-02T02:08:10.468Z,1019.34
2017-12-02T02:09:19.189Z,1019.39
2017-12-02T02:10:28.345Z,1019.43
2017-12-02T02:11:36.989Z,1019.45
2017-12-02T02:12:45.909Z,1019.44
2017-12-02T02:13:55.106Z,1019.46
2017-12-02T02:15:03.779Z,1019.44
2017-12-02T02:16:12.965Z,1019.47
2017-12-02T02:17:22.632Z,1019.48
2017-12-02T02:18:32.139Z,1019.46
2017-12-02T02:19:41.803Z,1019.48
2017-12-02T02:20:51.477Z,1019.5
2017-12-02T02:22:00.369Z,1019.47
2017-12-02T02:23:09.537Z,1019.47
2017-12-02T02:24:18.462Z,1019.46
2017-12-02T02:25:28.137Z,1019.47
2017-12-02T02:26:37.302Z,1019.46
2017-12-02T02:27:46.274Z,1019.49
2017-12-02T02:28:54.942Z,1019.49
2017-12-02T02:30:04.126Z,1019.5
2017-12-02T02:31:13.829Z,1019.46
2017-12-02T02:32:23.002Z,1019.48
2017-12-02T02:33:32.161Z,1019.48
2017-12-02T02:34:41.583Z,1019.51
2017-12-02T02:35:50.506Z,1019.53
2017-12-02T02:36:59.672Z,1019.51
2017-12-02T02:38:08.602Z,1019.51
2017-12-02T02:39:18.117Z,1019.51
2017-12-02T02:40:27.579Z,1019.49
2017-12-02T02:41:37.005Z,1019.42
2017-12-02T02:42:45.915Z,1019.42
2017-12-02T02:43:55.127Z,1019.44
2017-12-02T02:45:03.772Z,1019.44
2017-12-02T02:46:12.679Z,1019.43
2017-12-02T02:47:21.852Z,1019.46
2017-12-02T02:48:30.500Z,1019.47
2017-12-02T02:49:39.408Z,1019.47
2017-12-02T02:50:48.584Z,1019.51
2017-12-02T02:51:58.010Z,1019.48
2017-12-02T02:53:07.705Z,1019.51
2017-12-02T02:54:17.377Z,1019.49
2017-12-02T02:55:26.796Z,1019.48
2017-12-02T02:56:36.722Z,1019.49
2017-12-02T02:57:45.626Z,1019.52
2017-12-02T02:58:54.780Z,1019.53
2017-12-02T03:00:03.680Z,1019.55
2017-12-02T03:01:12.836Z,1019.57
2017-12-02T03:02:22.506Z,1019.54
2017-12-02T03:03:31.928Z,1019.57
2017-12-02T03:04:41.352Z,1019.57
2017-12-02T03:05:50.259Z,1019.55
2017-12-02T03:06:58.910Z,1019.54
2017-12-02T03:08:07.561Z,1019.58
2017-12-02T03:09:16.724Z,1019.55
2017-12-02T03:10:25.967Z,1019.59
2017-12-02T03:11:35.171Z,1019.64
2017-12-02T03:12:44.079Z,1019.63
2017-12-02T03:13:53.492Z,1019.63
2017-12-02T03:15:02.405Z,1019.6
2017-12-02T03:16:11.575Z,1019.59
2017-12-02T03:17:20.473Z,1019.62
2017-12-02T03:18:29.635Z,1019.6
2017-12-02T03:19:38.564Z,1019.61
2017-12-02T03:20:47.528Z,1019.6
2017-12-02T03:21:56.690Z,1019.61
2017-12-02T03:23:05.590Z,1019.6
2017-12-02T03:24:14.511Z,1019.59
2017-12-02T03:25:23.690Z,1019.61
2017-12-02T03:26:32.594Z,1019.63
2017-12-02T03:27:42.065Z,1019.67
2017-12-02T03:28:50.737Z,1019.67
2017-12-02T03:30:00.187Z,1019.71
2017-12-02T03:31:09.099Z,1019.69
2017-12-02T03:32:18.553Z,1019.69
2017-12-02T03:33:27.466Z,1019.69
2017-12-02T03:34:36.392Z,1019.68
2017-12-02T03:35:45.305Z,1019.67
2017-12-02T03:36:54.469Z,1019.65
2017-12-02T03:38:03.891Z,1019.7
2017-12-02T03:39:12.809Z,1019.73
2017-12-02T03:40:21.715Z,1019.74
2017-12-02T03:41:30.635Z,1019.76
2017-12-02T03:42:39.294Z,1019.77
2017-12-02T03:43:48.208Z,1019.76
2017-12-02T03:44:57.645Z,1019.76
2017-12-02T03:46:06.556Z,1019.79
2017-12-02T03:47:15.778Z,1019.79
2017-12-02T03:48:25.203Z,1019.83
2017-12-02T03:49:34.126Z,1019.83
2017-12-02T03:50:43.016Z,1019.85
2017-12-02T03:51:51.924Z,1019.89
2017-12-02T03:53:01.380Z,1019.82
2017-12-02T03:54:10.553Z,1019.86
2017-12-02T03:55:19.255Z,1019.88
2017-12-02T03:56:28.667Z,1019.85
2017-12-02T03:57:37.835Z,1019.85
2017-12-02T03:58:46.994Z,1019.86
2017-12-02T03:59:56.167Z,1019.91
2017-12-02T04:01:05.102Z,1019.9
2017-12-02T04:02:14.033Z,1019.91
2017-12-02T04:03:23.495Z,1019.92
2017-12-02T04:04:32.411Z,1019.92
2017-12-02T04:05:41.840Z,1019.92
2017-12-02T04:06:50.785Z,1019.91
2017-12-02T04:08:00.226Z,1019.93
2017-12-02T04:09:09.711Z,1019.92
2017-12-02T04:10:19.400Z,1019.93
2017-12-02T04:11:28.591Z,1019.94
2017-12-02T04:12:37.486Z,1019.97
2017-12-02T04:13:46.426Z,1019.98
2017-12-02T04:14:55.321Z,1020.02
2017-12-02T04:16:04.524Z,1020.03
2017-12-02T04:17:13.695Z,1020.05
2017-12-02T04:18:22.876Z,1020
2017-12-02T04:19:31.814Z,1020.05
2017-12-02T04:20:40.460Z,1020.06
2017-12-02T04:21:49.614Z,1020.07
2017-12-02T04:22:58.768Z,1020.04
2017-12-02T04:24:07.410Z,1020.03
2017-12-02T04:25:17.078Z,1020.06
2017-12-02T04:26:26.491Z,1020.03
2017-12-02T04:27:35.397Z,1020.05
2017-12-02T04:28:44.297Z,1020.06
2017-12-02T04:29:53.980Z,1020.1
2017-12-02T04:31:02.881Z,1020.1
2017-12-02T04:32:12.306Z,1020.14
2017-12-02T04:33:21.237Z,1020.13
2017-12-02T04:34:30.182Z,1020.14
2017-12-02T04:35:39.636Z,1020.18
2017-12-02T04:36:48.599Z,1020.13
2017-12-02T04:37:57.789Z,1020.13
2017-12-02T04:39:07.009Z,1020.14
2017-12-02T04:40:16.459Z,1020.15
2017-12-02T04:41:25.363Z,1020.12
2017-12-02T04:42:34.034Z,1020.15
2017-12-02T04:43:42.940Z,1020.15
2017-12-02T04:44:51.861Z,1020.12
2017-12-02T04:46:01.387Z,1020.15
2017-12-02T04:47:10.590Z,1020.14
2017-12-02T04:48:20.271Z,1020.12
2017-12-02T04:49:29.159Z,1020.15
2017-12-02T04:50:38.322Z,1020.14
2017-12-02T04:51:47.088Z,1020.14
2017-12-02T04:52:56.778Z,1020.15
2017-12-02T04:54:06.463Z,1020.1
2017-12-02T04:55:15.098Z,1020.12
2017-12-02T04:56:24.520Z,1020.16
2017-12-02T04:57:33.916Z,1020.18
2017-12-02T04:58:43.068Z,1020.11
2017-12-02T04:59:52.235Z,1020.13
2017-12-02T05:01:01.593Z,1020.11
2017-12-02T05:02:10.533Z,1020.1
2017-12-02T05:03:19.444Z,1020.14
2017-12-02T05:04:28.873Z,1020.11
2017-12-02T05:05:37.792Z,1020.2
2017-12-02T05:06:46.986Z,1020.2
2017-12-02T05:07:55.895Z,1020.22
2017-12-02T05:09:05.055Z,1020.21
2017-12-02T05:10:14.478Z,1020.24
2017-12-02T05:11:23.628Z,1020.22
2017-12-02T05:12:32.545Z,1020.25
2017-12-02T05:13:41.456Z,1020.25
2017-12-02T05:14:50.878Z,1020.26
2017-12-02T05:16:00.037Z,1020.25
2017-12-02T05:17:09.214Z,1020.27
2017-12-02T05:18:18.398Z,1020.25
2017-12-02T05:19:27.570Z,1020.22
2017-12-02T05:20:36.720Z,1020.2
2017-12-02T05:21:45.352Z,1020.22
2017-12-02T05:22:53.989Z,1020.2
2017-12-02T05:24:03.416Z,1020.21
2017-12-02T05:25:12.357Z,1020.13
2017-12-02T05:26:21.016Z,1020.16
2017-12-02T05:27:29.940Z,1020.17
2017-12-02T05:28:39.683Z,1020.14
2017-12-02T05:29:48.579Z,1020.15
2017-12-02T05:30:57.570Z,1020.18
2017-12-02T05:32:06.484Z,1020.21
2017-12-02T05:33:15.646Z,1020.23
2017-12-02T05:34:24.542Z,1020.25
2017-12-02T05:35:33.971Z,1020.27
2017-12-02T05:36:42.614Z,1020.34
2017-12-02T05:37:51.519Z,1020.33
2017-12-02T05:39:00.935Z,1020.31
2017-12-02T05:40:09.877Z,1020.37
2017-12-02T05:41:19.044Z,1020.38
2017-12-02T05:42:28.193Z,1020.38
2017-12-02T05:43:37.352Z,1020.46
2017-12-02T05:44:46.244Z,1020.49
2017-12-02T05:45:55.681Z,1020.51
2017-12-02T05:47:04.584Z,1020.54
2017-12-02T05:48:13.810Z,1020.52
2017-12-02T05:49:22.724Z,1020.54
2017-12-02T05:50:32.383Z,1020.53
2017-12-02T05:51:41.312Z,1020.53
2017-12-02T05:52:50.240Z,1020.54
2017-12-02T05:53:59.153Z,1020.54
2017-12-02T05:55:08.594Z,1020.54
2017-12-02T05:56:17.758Z,1020.55
2017-12-02T05:57:26.669Z,1020.54
2017-12-02T05:58:35.567Z,1020.53
2017-12-02T05:59:44.987Z,1020.58
2017-12-02T06:00:53.684Z,1020.61
2017-12-02T06:02:02.855Z,1020.61
2017-12-02T06:03:11.756Z,1020.57
2017-12-02T06:04:20.931Z,1020.54
2017-12-02T06:05:30.436Z,1020.53
2017-12-02T06:06:39.118Z,1020.45
2017-12-02T06:07:48.290Z,1020.48
2017-12-02T06:08:57.438Z,1020.49
2017-12-02T06:10:06.356Z,1020.52
2017-12-02T06:11:15.274Z,1020.58
2017-12-02T06:12:23.957Z,1020.58
2017-12-02T06:13:33.932Z,1020.62
2017-12-02T06:14:42.850Z,1020.58
2017-12-02T06:15:51.520Z,1020.63
2017-12-02T06:17:00.693Z,1020.61
2017-12-02T06:18:09.333Z,1020.64
2017-12-02T06:19:18.247Z,1020.68
2017-12-02T06:20:27.699Z,1020.69
2017-12-02T06:21:36.334Z,1020.7
2017-12-02T06:22:45.269Z,1020.71
2017-12-02T06:23:54.214Z,1020.71
2017-12-02T06:25:03.359Z,1020.71
2017-12-02T06:26:13.128Z,1020.76
2017-12-02T06:27:22.062Z,1020.77
2017-12-02T06:28:31.468Z,1020.77
2017-12-02T06:29:40.395Z,1020.78
2017-12-02T06:30:49.573Z,1020.83
2017-12-02T06:31:59.066Z,1020.85
2017-12-02T06:33:08.269Z,1020.89
2017-12-02T06:34:17.428Z,1020.92
2017-12-02T06:35:26.600Z,1020.9
2017-12-02T06:36:35.499Z,1020.89
2017-12-02T06:37:44.688Z,1020.9
2017-12-02T06:38:53.352Z,1020.87
2017-12-02T06:40:02.851Z,1020.88
2017-12-02T06:41:12.792Z,1020.92
2017-12-02T06:42:21.953Z,1020.95
2017-12-02T06:43:31.387Z,1020.98
2017-12-02T06:44:40.864Z,1021.01
2017-12-02T06:45:49.782Z,1020.99
2017-12-02T06:46:59.224Z,1021
2017-12-02T06:48:08.148Z,1020.96
2017-12-02T06:49:17.328Z,1020.94
2017-12-02T06:50:27.028Z,1020.97
2017-12-02T06:51:35.668Z,1020.99
2017-12-02T06:52:45.152Z,1021
2017-12-02T06:53:54.299Z,1021.01
2017-12-02T06:55:02.931Z,1021.02
2017-12-02T06:56:11.886Z,1021.01
2017-12-02T06:57:20.793Z,1021.05
2017-12-02T06:58:30.230Z,1021.06
2017-12-02T06:59:38.883Z,1021.13
2017-12-02T07:00:47.791Z,1021.13
2017-12-02T07:01:56.727Z,1021.16
2017-12-02T07:03:05.895Z,1021.2
2017-12-02T07:04:15.047Z,1021.2
2017-12-02T07:05:23.966Z,1021.26
2017-12-02T07:06:33.129Z,1021.28
2017-12-02T07:07:42.375Z,1021.31
2017-12-02T07:08:51.300Z,1021.34
2017-12-02T07:10:00.246Z,1021.37
2017-12-02T07:11:09.149Z,1021.36
2017-12-02T07:12:18.640Z,1021.34
2017-12-02T07:13:27.550Z,1021.42
2017-12-02T07:14:36.729Z,1021.38
2017-12-02T07:15:46.195Z,1021.4
2017-12-02T07:16:54.833Z,1021.44
2017-12-02T07:18:04.018Z,1021.45
2017-12-02T07:19:13.174Z,1021.38
2017-12-02T07:20:22.343Z,1021.37
2017-12-02T07:21:31.567Z,1021.38
2017-12-02T07:22:41.452Z,1021.42
2017-12-02T07:23:51.251Z,1021.45
2017-12-02T07:25:00.169Z,1021.5
2017-12-02T07:26:09.131Z,1021.52
2017-12-02T07:27:18.045Z,1021.48
2017-12-02T07:28:27.201Z,1021.52
2017-12-02T07:29:36.630Z,1021.56
2017-12-02T07:30:45.544Z,1021.49
2017-12-02T07:31:54.465Z,1021.56
2017-12-02T07:33:03.121Z,1021.57
2017-12-02T07:34:11.791Z,1021.55
2017-12-02T07:35:21.232Z,1021.58
2017-12-02T07:36:30.123Z,1021.62
2017-12-02T07:37:39.294Z,1021.6
2017-12-02T07:38:47.940Z,1021.63
2017-12-02T07:39:57.204Z,1021.62
2017-12-02T07:41:06.378Z,1021.59
2017-12-02T07:42:15.577Z,1021.62
2017-12-02T07:43:24.738Z,1021.65
2017-12-02T07:44:33.935Z,1021.65
2017-12-02T07:45:42.902Z,1021.64
2017-12-02T07:46:51.844Z,1021.71
2017-12-02T07:48:01.009Z,1021.71
2017-12-02T07:49:09.972Z,1021.75
2017-12-02T07:50:18.617Z,1021.8
2017-12-02T07:51:27.536Z,1021.81
2017-12-02T07:52:36.963Z,1021.84
2017-12-02T07:53:45.912Z,1021.81
2017-12-02T07:54:54.847Z,1021.83
2017-12-02T07:56:03.835Z,1021.87
2017-12-02T07:57:12.756Z,1021.86
2017-12-02T07:58:21.648Z,1021.85
2017-12-02T07:59:30.827Z,1021.84
2017-12-02T08:00:39.807Z,1021.85
2017-12-02T08:01:48.959Z,1021.9
2017-12-02T08:02:57.614Z,1021.89
2017-12-02T08:04:06.510Z,1021.93
2017-12-02T08:05:15.697Z,1021.94
2017-12-02T08:06:24.618Z,1021.92
2017-12-02T08:07:33.778Z,1021.93
2017-12-02T08:08:43.189Z,1021.91
2017-12-02T08:09:52.378Z,1021.92
2017-12-02T08:11:01.267Z,1021.94
2017-12-02T08:12:10.462Z,1021.94
2017-12-02T08:13:19.110Z,1021.91
2017-12-02T08:14:28.277Z,1021.96
2017-12-02T08:15:37.997Z,1021.91
2017-12-02T08:16:46.912Z,1021.93
2017-12-02T08:17:55.592Z,1021.96
2017-12-02T08:19:04.642Z,1021.98
2017-12-02T08:20:13.833Z,1022.01
2017-12-02T08:21:22.687Z,1021.98
2017-12-02T08:22:31.634Z,1022.01
2017-12-02T08:23:41.305Z,1022
2017-12-02T08:24:50.565Z,1021.96
2017-12-02T08:25:59.233Z,1021.96
2017-12-02T08:27:09.340Z,1021.97
2017-12-02T08:28:19.569Z,1021.94
2017-12-02T08:29:28.761Z,1021.92
2017-12-02T08:30:38.122Z,1021.96
2017-12-02T08:31:47.589Z,1021.94
2017-12-02T08:32:56.775Z,1021.93
2017-12-02T08:34:06.438Z,1021.97
2017-12-02T08:35:15.618Z,1021.97
2017-12-02T08:36:24.520Z,1021.99
2017-12-02T08:37:33.451Z,1022.04
2017-12-02T08:38:42.621Z,1022.02
2017-12-02T08:39:51.797Z,1021.98
2017-12-02T08:41:00.973Z,1021.99
2017-12-02T08:42:09.867Z,1021.99
2017-12-02T08:43:19.562Z,1021.97
2017-12-02T08:44:28.474Z,1021.93
2017-12-02T08:45:37.661Z,1021.95
2017-12-02T08:46:46.322Z,1021.96
2017-12-02T08:47:55.507Z,1021.97
2017-12-02T08:49:05.194Z,1021.97
2017-12-02T08:50:14.905Z,1021.96
2017-12-02T08:51:24.063Z,1021.98
2017-12-02T08:52:32.990Z,1021.99
2017-12-02T08:53:42.171Z,1021.97
2017-12-02T08:54:51.129Z,1022
2017-12-02T08:56:00.303Z,1022.01
2017-12-02T08:57:09.192Z,1021.99
2017-12-02T08:58:18.417Z,1022.03
2017-12-02T08:59:27.587Z,1021.98
2017-12-02T09:00:37.270Z,1022
2017-12-02T09:01:46.679Z,1022.02
2017-12-02T09:02:55.588Z,1021.99
2017-12-02T09:04:04.553Z,1021.99
2017-12-02T09:05:13.449Z,1021.95
2017-12-02T09:06:22.600Z,1022.02
2017-12-02T09:07:31.251Z,1022.01
2017-12-02T09:08:40.447Z,1022.04
2017-12-02T09:09:49.087Z,1022.02
2017-12-02T09:10:58.528Z,1022.04
2017-12-02T09:12:07.691Z,1022.05
2017-12-02T09:13:16.611Z,1022.04
2017-12-02T09:14:25.304Z,1022.04
2017-12-02T09:15:34.813Z,1022.02
2017-12-02T09:16:43.869Z,1022.02
2017-12-02T09:17:52.563Z,1022.06
2017-12-02T09:19:01.728Z,1022.04
2017-12-02T09:20:10.626Z,1022.08
2017-12-02T09:21:20.060Z,1022.12
2017-12-02T09:22:28.981Z,1022.14
2017-12-02T09:23:37.683Z,1022.2
2017-12-02T09:24:46.584Z,1022.19
2017-12-02T09:25:56.009Z,1022.22
2017-12-02T09:27:04.956Z,1022.23
2017-12-02T09:28:13.633Z,1022.29
2017-12-02T09:29:23.056Z,1022.31
2017-12-02T09:30:32.240Z,1022.31
2017-12-02T09:31:41.426Z,1022.37
2017-12-02T09:32:50.389Z,1022.39
2017-12-02T09:33:59.100Z,1022.41
2017-12-02T09:35:08.521Z,1022.45
2017-12-02T09:36:20.780Z,1022.5
2017-12-02T09:37:29.970Z,1022.53
2017-12-02T09:38:39.677Z,1022.53
2017-12-02T09:39:48.843Z,1022.54
2017-12-02T09:40:58.026Z,1022.55
2017-12-02T09:42:06.703Z,1022.57
2017-12-02T09:43:15.388Z,1022.57
2017-12-02T09:44:24.333Z,1022.61
2017-12-02T09:45:32.983Z,1022.65
2017-12-02T09:46:41.926Z,1022.59
2017-12-02T09:47:50.928Z,1022.57
2017-12-02T09:49:00.376Z,1022.57
2017-12-02T09:50:09.554Z,1022.57
2017-12-02T09:51:18.445Z,1022.61
2017-12-02T09:52:27.617Z,1022.66
2017-12-02T09:53:36.779Z,1022.66
2017-12-02T09:54:45.704Z,1022.65
2017-12-02T09:55:55.135Z,1022.69
2017-12-02T09:57:04.140Z,1022.68
2017-12-02T09:58:13.048Z,1022.63
2017-12-02T09:59:22.230Z,1022.65
2017-12-02T10:00:31.127Z,1022.66
2017-12-02T10:01:40.554Z,1022.67
2017-12-02T10:02:49.468Z,1022.68
2017-12-02T10:03:58.116Z,1022.68
2017-12-02T10:05:07.555Z,1022.71
2017-12-02T10:06:16.967Z,1022.67
2017-12-02T10:07:26.381Z,1022.71
2017-12-02T10:08:35.552Z,1022.7
2017-12-02T10:09:44.735Z,1022.68
2017-12-02T10:10:53.738Z,1022.69
2017-12-02T10:12:02.401Z,1022.65
2017-12-02T10:13:11.307Z,1022.67
2017-12-02T10:14:20.482Z,1022.68
2017-12-02T10:15:29.398Z,1022.65
2017-12-02T10:16:38.557Z,1022.67
2017-12-02T10:17:47.199Z,1022.72
2017-12-02T10:18:56.364Z,1022.72
2017-12-02T10:20:05.537Z,1022.7
2017-12-02T10:21:14.440Z,1022.74
2017-12-02T10:22:24.113Z,1022.74
2017-12-02T10:23:33.020Z,1022.75
2017-12-02T10:24:41.917Z,1022.76
2017-12-02T10:25:50.833Z,1022.76
2017-12-02T10:26:59.735Z,1022.78
2017-12-02T10:28:08.758Z,1022.75
2017-12-02T10:29:18.490Z,1022.72
2017-12-02T10:30:27.398Z,1022.75
2017-12-02T10:31:36.835Z,1022.72
2017-12-02T10:32:45.884Z,1022.72
2017-12-02T10:33:58.019Z,1022.68
2017-12-02T10:35:06.951Z,1022.72
2017-12-02T10:36:16.130Z,1022.74
2017-12-02T10:37:24.788Z,1022.75
2017-12-02T10:38:33.965Z,1022.74
2017-12-02T10:39:43.370Z,1022.72
2017-12-02T10:40:52.549Z,1022.71
2017-12-02T10:42:01.985Z,1022.69
2017-12-02T10:43:10.877Z,1022.71
2017-12-02T10:44:20.049Z,1022.71
2017-12-02T10:45:29.728Z,1022.7
2017-12-02T10:46:38.390Z,1022.73
2017-12-02T10:47:47.306Z,1022.74
2017-12-02T10:48:56.199Z,1022.81
2017-12-02T10:50:05.102Z,1022.8
2017-12-02T10:51:14.010Z,1022.79
2017-12-02T10:52:22.651Z,1022.81
2017-12-02T10:53:32.066Z,1022.86
2017-12-02T10:54:40.972Z,1022.84
2017-12-02T10:55:50.149Z,1022.84
2017-12-02T10:56:59.337Z,1022.81
2017-12-02T10:58:08.496Z,1022.8
2017-12-02T10:59:17.713Z,1022.74
2017-12-02T11:00:26.869Z,1022.7
2017-12-02T11:01:35.561Z,1022.66
2017-12-02T11:02:57.205Z,1022.69
2017-12-02T11:04:05.865Z,1022.7
2017-12-02T11:05:14.512Z,1022.74
2017-12-02T11:06:23.476Z,1022.75
2017-12-02T11:07:32.378Z,1022.77
2017-12-02T11:08:41.564Z,1022.77
2017-12-02T11:09:50.724Z,1022.76
2017-12-02T11:10:59.366Z,1022.78
2017-12-02T11:12:08.279Z,1022.76
2017-12-02T11:13:17.191Z,1022.74
2017-12-02T11:14:26.599Z,1022.72
2017-12-02T11:15:35.826Z,1022.74
2017-12-02T11:16:45.332Z,1022.74
2017-12-02T11:17:54.237Z,1022.7
2017-12-02T11:19:02.881Z,1022.7
2017-12-02T11:20:12.031Z,1022.7
2017-12-02T11:21:21.204Z,1022.67
2017-12-02T11:22:29.877Z,1022.64
2017-12-02T11:23:38.782Z,1022.65
2017-12-02T11:24:47.418Z,1022.65
2017-12-02T11:25:56.592Z,1022.66
2017-12-02T11:27:06.776Z,1022.64
2017-12-02T11:28:16.023Z,1022.63
2017-12-02T11:29:25.187Z,1022.63
2017-12-02T11:30:34.658Z,1022.63
2017-12-02T11:31:43.833Z,1022.62
2017-12-02T11:32:52.764Z,1022.61
2017-12-02T11:34:01.933Z,1022.6
2017-12-02T11:35:11.097Z,1022.56
2017-12-02T11:36:20.524Z,1022.58
2017-12-02T11:37:29.701Z,1022.61
2017-12-02T11:38:38.375Z,1022.63
2017-12-02T11:39:47.546Z,1022.68
2017-12-02T11:40:56.763Z,1022.69
2017-12-02T11:42:05.428Z,1022.69
2017-12-02T11:43:14.620Z,1022.65
2017-12-02T11:44:24.555Z,1022.66
2017-12-02T11:45:33.456Z,1022.66
2017-12-02T11:46:42.614Z,1022.66
2017-12-02T11:47:51.527Z,1022.66
2017-12-02T11:49:01.205Z,1022.65
2017-12-02T11:50:09.854Z,1022.62
2017-12-02T11:51:18.512Z,1022.65
2017-12-02T11:52:27.682Z,1022.62
2017-12-02T11:53:36.597Z,1022.66
2017-12-02T11:54:45.513Z,1022.65
2017-12-02T11:55:54.158Z,1022.61
2017-12-02T11:57:02.834Z,1022.65
2017-12-02T11:58:11.486Z,1022.64
2017-12-02T11:59:20.643Z,1022.66
2017-12-02T12:00:29.292Z,1022.63
2017-12-02T12:01:37.933Z,1022.64
2017-12-02T12:02:46.591Z,1022.59
2017-12-02T12:03:55.754Z,1022.56
2017-12-02T12:05:04.647Z,1022.55
2017-12-02T12:06:13.565Z,1022.53
2017-12-02T12:07:22.740Z,1022.53
2017-12-02T12:08:31.639Z,1022.52
2017-12-02T12:09:40.305Z,1022.53
2017-12-02T12:10:49.493Z,1022.52
2017-12-02T12:11:58.663Z,1022.51
2017-12-02T12:13:07.848Z,1022.56
2017-12-02T12:14:16.498Z,1022.54
2017-12-02T12:15:25.937Z,1022.52
2017-12-02T12:16:35.108Z,1022.48
2017-12-02T12:17:44.327Z,1022.5
2017-12-02T12:18:53.516Z,1022.51
2017-12-02T12:20:02.932Z,1022.54
2017-12-02T12:21:11.840Z,1022.55
2017-12-02T12:22:21.015Z,1022.55
2017-12-02T12:23:29.934Z,1022.53
2017-12-02T12:24:39.355Z,1022.52
2017-12-02T12:25:48.532Z,1022.51
2017-12-02T12:26:57.690Z,1022.47
2017-12-02T12:28:06.894Z,1022.49
2017-12-02T12:29:15.793Z,1022.45
2017-12-02T12:30:25.019Z,1022.47
2017-12-02T12:31:34.831Z,1022.47
2017-12-02T12:32:43.471Z,1022.49
2017-12-02T12:33:52.640Z,1022.44
2017-12-02T12:35:01.823Z,1022.47
2017-12-02T12:36:10.761Z,1022.45
2017-12-02T12:37:19.664Z,1022.41
2017-12-02T12:38:28.585Z,1022.39
2017-12-02T12:39:37.782Z,1022.37
2017-12-02T12:40:46.955Z,1022.35
2017-12-02T12:41:55.886Z,1022.36
2017-12-02T12:43:05.083Z,1022.28
2017-12-02T12:44:14.246Z,1022.3
2017-12-02T12:45:22.914Z,1022.31
2017-12-02T12:46:32.220Z,1022.26
2017-12-02T12:47:41.643Z,1022.25
2017-12-02T12:48:50.551Z,1022.25
2017-12-02T12:49:59.459Z,1022.28
2017-12-02T12:51:08.381Z,1022.3
2017-12-02T12:52:17.564Z,1022.22
2017-12-02T12:53:26.482Z,1022.25
2017-12-02T12:54:35.128Z,1022.22
2017-12-02T12:55:44.034Z,1022.22
2017-12-02T12:56:52.929Z,1022.16
2017-12-02T12:58:02.116Z,1022.15
2017-12-02T12:59:11.297Z,1022.2
2017-12-02T13:00:20.414Z,1022.21
2017-12-02T13:01:29.319Z,1022.19
2017-12-02T13:02:38.213Z,1022.2
2017-12-02T13:03:47.393Z,1022.21
2017-12-02T13:04:56.303Z,1022.2
2017-12-02T13:06:05.450Z,1022.13
2017-12-02T13:07:14.612Z,1022.16
2017-12-02T13:08:23.786Z,1022.12
2017-12-02T13:09:32.698Z,1022.08
2017-12-02T13:10:41.881Z,1022.06
2017-12-02T13:11:51.067Z,1022.09
2017-12-02T13:13:00.274Z,1022.08
2017-12-02T13:14:09.722Z,1022.1
2017-12-02T13:15:18.905Z,1022.13
2017-12-02T13:16:27.590Z,1022.15
2017-12-02T13:17:37.055Z,1022.18
2017-12-02T13:18:46.734Z,1022.2
2017-12-02T13:19:55.923Z,1022.17
2017-12-02T13:21:05.364Z,1022.13
2017-12-02T13:22:14.811Z,1022.1
2017-12-02T13:23:23.738Z,1022.08
2017-12-02T13:24:32.674Z,1022.1
2017-12-02T13:25:42.138Z,1022.06
2017-12-02T13:26:51.113Z,1022.08
2017-12-02T13:28:00.100Z,1022.04
2017-12-02T13:29:09.019Z,1022.06
2017-12-02T13:30:18.220Z,1022.07
2017-12-02T13:31:27.402Z,1022.05
2017-12-02T13:32:36.604Z,1022.04
2017-12-02T13:33:45.635Z,1022.05
2017-12-02T13:34:55.031Z,1022.01
2017-12-02T13:36:04.240Z,1022.06
2017-12-02T13:37:13.693Z,1022.06
2017-12-02T13:38:22.865Z,1022.08
2017-12-02T13:39:32.051Z,1022.05
2017-12-02T13:40:41.501Z,1022.02
2017-12-02T13:41:50.688Z,1022.01
2017-12-02T13:42:59.341Z,1021.98
2017-12-02T13:44:08.502Z,1021.98
2017-12-02T13:45:18.220Z,1021.93
2017-12-02T13:46:27.396Z,1021.95
2017-12-02T13:47:36.565Z,1021.95
2017-12-02T13:48:45.460Z,1021.96
2017-12-02T13:49:54.372Z,1021.94
2017-12-02T13:51:03.850Z,1021.96
2017-12-02T13:52:13.009Z,1022.01
2017-12-02T13:53:22.165Z,1022.03
2017-12-02T13:54:31.608Z,1022.08
2017-12-02T13:55:41.031Z,1022.11
2017-12-02T13:56:49.949Z,1022.17
2017-12-02T13:57:58.852Z,1022.2
2017-12-02T13:59:08.055Z,1022.22